KFNL

Fort Collins-Loveland Municipal Airport

Fort Collins/Loveland, Colorado, USA
METAR KFNL 220956Z AUTO 01006KT 10SM CLR 12/09 A2999 RMK AO2 SLP103 T01220089
Observed Flight Rules
May-22 @ 09:56 UTC (12 minutes ago) Visual Flight Rules
Wind Visibility Clouds
10° at 6 knots 10 miles
  • Clear skies
Temperatures Readings
Current 12°C / 54°F
Dewpoint 9°C / 48°F
Humidity 82%
Altimeter 29.99" Hg
Pressure 1010.3 hPa
Elevation 1529
METAR KFNL 220956Z AUTO 01006KT 10SM CLR 12/09 A2999 RMK AO2 SLP103 T01220089
Observed Flight Rules
May-22 @ 09:56 UTC
(12 minutes ago)
VFR
Wind Visibility
10° at 6 knots 10 miles
Clouds
  • Clear skies
Temperature Dewpoint
12°C / 54°F 9°C / 48°F
Humidity Altimeter Pressure
82% 29.99" Hg 1010.3 hPa